sensor_id;sensor_type;location;lat;lon;timestamp;pressure;altitude;pressure_sealevel;temperature;humidity
66627;BME280;53498;50.422;14.912;2023-12-22T00:01:40;-24134.16;;;4.15;100.00
66627;BME280;53498;50.422;14.912;2023-12-22T00:04:06;-24136.34;;;4.22;100.00
66627;BME280;53498;50.422;14.912;2023-12-22T00:06:32;-24136.34;;;4.22;100.00
66627;BME280;53498;50.422;14.912;2023-12-22T00:08:58;-24135.41;;;4.19;100.00
66627;BME280;53498;50.422;14.912;2023-12-22T00:11:23;-24136.34;;;4.22;100.00
66627;BME280;53498;50.422;14.912;2023-12-22T00:13:49;-24136.97;;;4.24;100.00
66627;BME280;53498;50.422;14.912;2023-12-22T00:16:14;-24137.56;;;4.26;100.00
66627;BME280;53498;50.422;14.912;2023-12-22T00:18:40;-24138.81;;;4.30;100.00
66627;BME280;53498;50.422;14.912;2023-12-22T00:21:10;-24137.25;;;4.25;100.00
66627;BME280;53498;50.422;14.912;2023-12-22T00:23:36;-24138.34;;;4.29;100.00
66627;BME280;53498;50.422;14.912;2023-12-22T00:26:03;-24137.25;;;4.25;100.00
66627;BME280;53498;50.422;14.912;2023-12-22T00:28:29;-24136.66;;;4.23;100.00
66627;BME280;53498;50.422;14.912;2023-12-22T00:30:57;-24136.66;;;4.23;100.00
66627;BME280;53498;50.422;14.912;2023-12-22T00:33:23;-24135.56;;;4.20;100.00
66627;BME280;53498;50.422;14.912;2023-12-22T00:35:49;-24134.94;;;4.17;100.00
66627;BME280;53498;50.422;14.912;2023-12-22T00:38:15;-24136.03;;;4.21;100.00
66627;BME280;53498;50.422;14.912;2023-12-22T00:40:40;-24136.34;;;4.22;100.00
66627;BME280;53498;50.422;14.912;2023-12-22T00:43:06;-24135.41;;;4.19;100.00
66627;BME280;53498;50.422;14.912;2023-12-22T00:45:31;-24134.63;;;4.16;100.00
66627;BME280;53498;50.422;14.912;2023-12-22T00:48:04;-24135.09;;;4.18;100.00
66627;BME280;53498;50.422;14.912;2023-12-22T00:50:30;-24134.47;;;4.16;100.00
66627;BME280;53498;50.422;14.912;2023-12-22T00:52:56;-24135.41;;;4.19;100.00
66627;BME280;53498;50.422;14.912;2023-12-22T00:55:21;-24135.41;;;4.19;100.00
66627;BME280;53498;50.422;14.912;2023-12-22T00:57:47;-24136.03;;;4.21;100.00
66627;BME280;53498;50.422;14.912;2023-12-22T01:00:13;-24135.88;;;4.21;100.00
66627;BME280;53498;50.422;14.912;2023-12-22T01:02:39;-24134.78;;;4.17;100.00
66627;BME280;53498;50.422;14.912;2023-12-22T01:05:05;-24134.63;;;4.16;100.00
66627;BME280;53498;50.422;14.912;2023-12-22T01:07:31;-24134.00;;;4.14;100.00
66627;BME280;53498;50.422;14.912;2023-12-22T01:09:56;-24133.69;;;4.13;100.00
66627;BME280;53498;50.422;14.912;2023-12-22T01:12:27;-24132.31;;;4.09;100.00
66627;BME280;53498;50.422;14.912;2023-12-22T01:14:54;-24132.47;;;4.09;100.00
66627;BME280;53498;50.422;14.912;2023-12-22T01:17:20;-24131.38;;;4.06;100.00
66627;BME280;53498;50.422;14.912;2023-12-22T01:19:46;-24132.94;;;4.11;100.00
66627;BME280;53498;50.422;14.912;2023-12-22T01:22:12;-24133.25;;;4.12;100.00
66627;BME280;53498;50.422;14.912;2023-12-22T01:24:37;-24133.84;;;4.14;100.00
66627;BME280;53498;50.422;14.912;2023-12-22T01:27:06;-24133.41;;;4.12;100.00
66627;BME280;53498;50.422;14.912;2023-12-22T01:29:32;-24133.09;;;4.11;100.00
66627;BME280;53498;50.422;14.912;2023-12-22T01:31:58;-24133.69;;;4.13;100.00
66627;BME280;53498;50.422;14.912;2023-12-22T01:34:23;-24134.94;;;4.17;100.00
66627;BME280;53498;50.422;14.912;2023-12-22T01:36:49;-24136.34;;;4.22;99.42
66627;BME280;53498;50.422;14.912;2023-12-22T01:39:15;-24137.25;;;4.25;100.00
66627;BME280;53498;50.422;14.912;2023-12-22T01:41:41;-24136.34;;;4.22;100.00
66627;BME280;53498;50.422;14.912;2023-12-22T01:44:07;-24134.00;;;4.14;100.00
66627;BME280;53498;50.422;14.912;2023-12-22T01:46:33;-24133.53;;;4.13;100.00
66627;BME280;53498;50.422;14.912;2023-12-22T01:49:00;-24132.47;;;4.09;100.00
66627;BME280;53498;50.422;14.912;2023-12-22T01:51:28;-24133.09;;;4.11;100.00
66627;BME280;53498;50.422;14.912;2023-12-22T01:53:54;-24133.09;;;4.11;100.00
66627;BME280;53498;50.422;14.912;2023-12-22T01:56:20;-24133.25;;;4.12;100.00
66627;BME280;53498;50.422;14.912;2023-12-22T01:58:46;-24133.69;;;4.13;100.00
66627;BME280;53498;50.422;14.912;2023-12-22T02:01:13;-24131.84;;;4.07;100.00
66627;BME280;53498;50.422;14.912;2023-12-22T02:03:39;-24132.78;;;4.10;100.00
66627;BME280;53498;50.422;14.912;2023-12-22T02:06:05;-24133.53;;;4.13;100.00
66627;BME280;53498;50.422;14.912;2023-12-22T02:08:32;-24135.09;;;4.18;100.00
66627;BME280;53498;50.422;14.912;2023-12-22T02:10:58;-24134.78;;;4.17;100.00
66627;BME280;53498;50.422;14.912;2023-12-22T02:13:24;-24134.00;;;4.14;100.00
66627;BME280;53498;50.422;14.912;2023-12-22T02:15:56;-24134.16;;;4.15;100.00
66627;BME280;53498;50.422;14.912;2023-12-22T02:18:31;-24134.31;;;4.15;100.00
66627;BME280;53498;50.422;14.912;2023-12-22T02:20:58;-24133.53;;;4.13;100.00
66627;BME280;53498;50.422;14.912;2023-12-22T02:23:24;-24134.78;;;4.17;100.00
66627;BME280;53498;50.422;14.912;2023-12-22T02:25:54;-24135.25;;;4.18;99.56
66627;BME280;53498;50.422;14.912;2023-12-22T02:28:23;-24135.72;;;4.20;100.00
66627;BME280;53498;50.422;14.912;2023-12-22T02:33:52;-24135.41;;;4.19;99.11
66627;BME280;53498;50.422;14.912;2023-12-22T02:36:20;-24136.03;;;4.21;99.19
66627;BME280;53498;50.422;14.912;2023-12-22T02:38:48;-24136.97;;;4.24;98.71
66627;BME280;53498;50.422;14.912;2023-12-22T02:41:14;-24135.72;;;4.20;98.07
66627;BME280;53498;50.422;14.912;2023-12-22T02:43:41;-24136.19;;;4.22;96.26
66627;BME280;53498;50.422;14.912;2023-12-22T02:46:13;-24137.56;;;4.26;97.67
66627;BME280;53498;50.422;14.912;2023-12-22T02:48:39;-24136.66;;;4.23;96.66
66627;BME280;53498;50.422;14.912;2023-12-22T02:51:05;-24138.34;;;4.29;94.57
66627;BME280;53498;50.422;14.912;2023-12-22T02:53:30;-24139.13;;;4.31;93.29
66627;BME280;53498;50.422;14.912;2023-12-22T02:55:56;-24139.28;;;4.32;95.89
66627;BME280;53498;50.422;14.912;2023-12-22T02:58:21;-24136.34;;;4.22;95.27
66627;BME280;53498;50.422;14.912;2023-12-22T03:00:47;-24135.09;;;4.18;93.98
66627;BME280;53498;50.422;14.912;2023-12-22T03:03:14;-24136.66;;;4.23;92.39
66627;BME280;53498;50.422;14.912;2023-12-22T03:05:40;-24135.56;;;4.20;91.68
66627;BME280;53498;50.422;14.912;2023-12-22T03:08:06;-24135.88;;;4.21;92.60
66627;BME280;53498;50.422;14.912;2023-12-22T03:10:31;-24134.63;;;4.16;93.94
66627;BME280;53498;50.422;14.912;2023-12-22T03:12:57;-24134.63;;;4.16;93.04
66627;BME280;53498;50.422;14.912;2023-12-22T03:15:22;-24134.31;;;4.15;93.40
66627;BME280;53498;50.422;14.912;2023-12-22T03:17:48;-24133.53;;;4.13;93.00
66627;BME280;53498;50.422;14.912;2023-12-22T03:20:14;-24134.31;;;4.15;93.87
66627;BME280;53498;50.422;14.912;2023-12-22T03:22:39;-24132.00;;;4.08;94.38
66627;BME280;53498;50.422;14.912;2023-12-22T03:25:05;-24130.44;;;4.03;95.79
66627;BME280;53498;50.422;14.912;2023-12-22T03:27:31;-24127.19;;;3.92;96.71
66627;BME280;53498;50.422;14.912;2023-12-22T03:29:56;-24127.03;;;3.91;95.60
66627;BME280;53498;50.422;14.912;2023-12-22T03:32:22;-24128.59;;;3.97;96.08
66627;BME280;53498;50.422;14.912;2023-12-22T03:34:50;-24127.66;;;3.93;95.75
66627;BME280;53498;50.422;14.912;2023-12-22T03:37:16;-24126.59;;;3.90;99.93
66627;BME280;53498;50.422;14.912;2023-12-22T03:39:41;-24118.69;;;3.64;100.00
66627;BME280;53498;50.422;14.912;2023-12-22T03:42:07;-24111.09;;;3.39;100.00
66627;BME280;53498;50.422;14.912;2023-12-22T03:44:33;-24107.06;;;3.25;100.00
66627;BME280;53498;50.422;14.912;2023-12-22T03:46:58;-24101.50;;;3.07;100.00
66627;BME280;53498;50.422;14.912;2023-12-22T03:49:24;-24097.00;;;2.92;100.00
66627;BME280;53498;50.422;14.912;2023-12-22T03:51:49;-24094.34;;;2.84;100.00
66627;BME280;53498;50.422;14.912;2023-12-22T03:54:15;-24092.19;;;2.76;100.00
66627;BME280;53498;50.422;14.912;2023-12-22T03:56:43;-24094.03;;;2.83;100.00
66627;BME280;53498;50.422;14.912;2023-12-22T03:59:09;-24094.34;;;2.84;100.00
66627;BME280;53498;50.422;14.912;2023-12-22T04:01:35;-24094.19;;;2.83;100.00
66627;BME280;53498;50.422;14.912;2023-12-22T04:04:01;-24092.19;;;2.76;100.00
66627;BME280;53498;50.422;14.912;2023-12-22T04:06:26;-24092.19;;;2.76;100.00
66627;BME280;53498;50.422;14.912;2023-12-22T04:08:52;-24090.63;;;2.71;100.00
66627;BME280;53498;50.422;14.912;2023-12-22T04:11:17;-24090.94;;;2.72;100.00
66627;BME280;53498;50.422;14.912;2023-12-22T04:13:43;-24092.81;;;2.78;100.00
66627;BME280;53498;50.422;14.912;2023-12-22T04:16:09;-24092.66;;;2.78;100.00
66627;BME280;53498;50.422;14.912;2023-12-22T04:18:34;-24091.72;;;2.75;100.00
66627;BME280;53498;50.422;14.912;2023-12-22T04:21:00;-24092.66;;;2.78;100.00
66627;BME280;53498;50.422;14.912;2023-12-22T04:23:25;-24093.13;;;2.80;100.00
66627;BME280;53498;50.422;14.912;2023-12-22T04:25:54;-24092.19;;;2.76;100.00
66627;BME280;53498;50.422;14.912;2023-12-22T04:28:19;-24092.19;;;2.76;100.00
66627;BME280;53498;50.422;14.912;2023-12-22T04:30:45;-24091.25;;;2.73;100.00
66627;BME280;53498;50.422;14.912;2023-12-22T04:33:11;-24091.41;;;2.74;100.00
66627;BME280;53498;50.422;14.912;2023-12-22T04:35:36;-24091.41;;;2.74;100.00
66627;BME280;53498;50.422;14.912;2023-12-22T04:38:02;-24090.16;;;2.70;100.00
66627;BME280;53498;50.422;14.912;2023-12-22T04:40:27;-24091.56;;;2.74;100.00
66627;BME280;53498;50.422;14.912;2023-12-22T04:42:53;-24092.50;;;2.77;100.00
66627;BME280;53498;50.422;14.912;2023-12-22T04:45:19;-24095.28;;;2.87;100.00
66627;BME280;53498;50.422;14.912;2023-12-22T04:47:44;-24095.28;;;2.87;100.00
66627;BME280;53498;50.422;14.912;2023-12-22T04:50:17;-24094.97;;;2.86;100.00
66627;BME280;53498;50.422;14.912;2023-12-22T04:52:43;-24096.53;;;2.91;100.00
66627;BME280;53498;50.422;14.912;2023-12-22T04:55:09;-24093.72;;;2.82;100.00
66627;BME280;53498;50.422;14.912;2023-12-22T04:57:35;-24095.13;;;2.86;100.00
66627;BME280;53498;50.422;14.912;2023-12-22T05:00:00;-24094.19;;;2.83;100.00
66627;BME280;53498;50.422;14.912;2023-12-22T05:02:26;-24093.56;;;2.81;100.00
66627;BME280;53498;50.422;14.912;2023-12-22T05:04:51;-24094.34;;;2.84;100.00
66627;BME280;53498;50.422;14.912;2023-12-22T05:07:17;-24094.97;;;2.86;100.00
66627;BME280;53498;50.422;14.912;2023-12-22T05:09:42;-24094.34;;;2.84;100.00
66627;BME280;53498;50.422;14.912;2023-12-22T05:12:08;-24093.72;;;2.82;100.00
66627;BME280;53498;50.422;14.912;2023-12-22T05:14:34;-24094.50;;;2.84;100.00
66627;BME280;53498;50.422;14.912;2023-12-22T05:16:59;-24095.13;;;2.86;100.00
66627;BME280;53498;50.422;14.912;2023-12-22T05:19:25;-24097.78;;;2.95;100.00
66627;BME280;53498;50.422;14.912;2023-12-22T05:21:51;-24100.41;;;3.04;100.00
66627;BME280;53498;50.422;14.912;2023-12-22T05:24:21;-24099.31;;;3.00;100.00
66627;BME280;53498;50.422;14.912;2023-12-22T05:26:47;-24097.78;;;2.95;100.00
66627;BME280;53498;50.422;14.912;2023-12-22T05:29:12;-24094.50;;;2.84;100.00
66627;BME280;53498;50.422;14.912;2023-12-22T05:31:38;-24093.72;;;2.82;100.00
66627;BME280;53498;50.422;14.912;2023-12-22T05:34:05;-24090.16;;;2.70;100.00
66627;BME280;53498;50.422;14.912;2023-12-22T05:36:31;-24092.03;;;2.76;100.00
66627;BME280;53498;50.422;14.912;2023-12-22T05:38:56;-24092.03;;;2.76;100.00
66627;BME280;53498;50.422;14.912;2023-12-22T05:41:22;-24092.50;;;2.77;100.00
66627;BME280;53498;50.422;14.912;2023-12-22T05:43:48;-24091.41;;;2.74;100.00
66627;BME280;53498;50.422;14.912;2023-12-22T05:46:16;-24090.63;;;2.71;100.00
66627;BME280;53498;50.422;14.912;2023-12-22T05:48:42;-24092.66;;;2.78;100.00
66627;BME280;53498;50.422;14.912;2023-12-22T05:51:07;-24093.56;;;2.81;100.00
66627;BME280;53498;50.422;14.912;2023-12-22T05:53:39;-24094.81;;;2.85;100.00
66627;BME280;53498;50.422;14.912;2023-12-22T05:56:22;-24094.34;;;2.84;100.00
66627;BME280;53498;50.422;14.912;2023-12-22T05:58:50;-24095.28;;;2.87;100.00
66627;BME280;53498;50.422;14.912;2023-12-22T06:01:17;-24095.13;;;2.86;100.00
66627;BME280;53498;50.422;14.912;2023-12-22T06:03:46;-24095.59;;;2.88;100.00
66627;BME280;53498;50.422;14.912;2023-12-22T06:06:12;-24094.81;;;2.85;100.00
66627;BME280;53498;50.422;14.912;2023-12-22T06:08:38;-24094.19;;;2.83;100.00
66627;BME280;53498;50.422;14.912;2023-12-22T06:11:06;-24091.41;;;2.74;100.00
66627;BME280;53498;50.422;14.912;2023-12-22T06:13:32;-24091.72;;;2.75;100.00
66627;BME280;53498;50.422;14.912;2023-12-22T06:15:58;-24088.16;;;2.63;100.00
66627;BME280;53498;50.422;14.912;2023-12-22T06:18:23;-24087.22;;;2.60;100.00
66627;BME280;53498;50.422;14.912;2023-12-22T06:20:49;-24085.97;;;2.56;100.00
66627;BME280;53498;50.422;14.912;2023-12-22T06:23:15;-24085.19;;;2.53;100.00
66627;BME280;53498;50.422;14.912;2023-12-22T06:25:40;-24085.53;;;2.54;100.00
66627;BME280;53498;50.422;14.912;2023-12-22T06:28:06;-24082.72;;;2.45;100.00
66627;BME280;53498;50.422;14.912;2023-12-22T06:30:31;-24083.03;;;2.46;100.00
66627;BME280;53498;50.422;14.912;2023-12-22T06:32:57;-24081.78;;;2.42;100.00
66627;BME280;53498;50.422;14.912;2023-12-22T06:35:22;-24078.22;;;2.30;100.00
66627;BME280;53498;50.422;14.912;2023-12-22T06:37:51;-24076.06;;;2.23;100.00
66627;BME280;53498;50.422;14.912;2023-12-22T06:40:17;-24074.03;;;2.17;100.00
66627;BME280;53498;50.422;14.912;2023-12-22T06:42:46;-24074.81;;;2.19;100.00
66627;BME280;53498;50.422;14.912;2023-12-22T06:45:11;-24075.13;;;2.20;100.00
66627;BME280;53498;50.422;14.912;2023-12-22T06:47:37;-24077.00;;;2.26;100.00
66627;BME280;53498;50.422;14.912;2023-12-22T06:50:03;-24077.75;;;2.29;100.00
66627;BME280;53498;50.422;14.912;2023-12-22T06:52:29;-24077.00;;;2.26;100.00
66627;BME280;53498;50.422;14.912;2023-12-22T06:54:56;-24077.75;;;2.29;100.00
66627;BME280;53498;50.422;14.912;2023-12-22T06:57:21;-24079.31;;;2.34;100.00
66627;BME280;53498;50.422;14.912;2023-12-22T06:59:47;-24082.25;;;2.44;100.00
66627;BME280;53498;50.422;14.912;2023-12-22T07:02:14;-24081.16;;;2.40;100.00
66627;BME280;53498;50.422;14.912;2023-12-22T07:07:42;-24082.09;;;2.43;100.00
66627;BME280;53498;50.422;14.912;2023-12-22T07:10:08;-24082.56;;;2.45;100.00
66627;BME280;53498;50.422;14.912;2023-12-22T07:12:34;-24083.97;;;2.49;100.00
66627;BME280;53498;50.422;14.912;2023-12-22T07:14:59;-24083.50;;;2.48;100.00
66627;BME280;53498;50.422;14.912;2023-12-22T07:17:25;-24084.28;;;2.50;100.00
66627;BME280;53498;50.422;14.912;2023-12-22T07:19:50;-24084.91;;;2.52;100.00
66627;BME280;53498;50.422;14.912;2023-12-22T07:22:17;-24085.06;;;2.53;100.00
66627;BME280;53498;50.422;14.912;2023-12-22T07:24:43;-24086.13;;;2.57;100.00
66627;BME280;53498;50.422;14.912;2023-12-22T07:27:08;-24083.97;;;2.49;100.00
66627;BME280;53498;50.422;14.912;2023-12-22T07:29:34;-24083.97;;;2.49;100.00
66627;BME280;53498;50.422;14.912;2023-12-22T07:31:59;-24083.81;;;2.49;100.00
66627;BME280;53498;50.422;14.912;2023-12-22T07:34:25;-24084.13;;;2.50;100.00
66627;BME280;53498;50.422;14.912;2023-12-22T07:36:50;-24088.16;;;2.63;100.00
66627;BME280;53498;50.422;14.912;2023-12-22T07:39:17;-24089.53;;;2.68;100.00
66627;BME280;53498;50.422;14.912;2023-12-22T07:41:44;-24092.03;;;2.76;100.00
66627;BME280;53498;50.422;14.912;2023-12-22T07:44:09;-24094.81;;;2.85;100.00
66627;BME280;53498;50.422;14.912;2023-12-22T07:46:35;-24094.81;;;2.85;100.00
66627;BME280;53498;50.422;14.912;2023-12-22T07:49:00;-24096.06;;;2.89;100.00
66627;BME280;53498;50.422;14.912;2023-12-22T07:51:26;-24096.38;;;2.90;100.00
66627;BME280;53498;50.422;14.912;2023-12-22T07:53:51;-24099.16;;;2.99;100.00
66627;BME280;53498;50.422;14.912;2023-12-22T07:56:17;-24099.63;;;3.01;100.00
66627;BME280;53498;50.422;14.912;2023-12-22T07:58:43;-24099.47;;;3.00;100.00
66627;BME280;53498;50.422;14.912;2023-12-22T08:01:08;-24101.63;;;3.08;100.00
66627;BME280;53498;50.422;14.912;2023-12-22T08:03:34;-24104.75;;;3.18;100.00
66627;BME280;53498;50.422;14.912;2023-12-22T08:06:00;-24105.19;;;3.19;100.00
66627;BME280;53498;50.422;14.912;2023-12-22T08:08:26;-24105.66;;;3.21;100.00
66627;BME280;53498;50.422;14.912;2023-12-22T08:10:51;-24106.59;;;3.24;100.00
66627;BME280;53498;50.422;14.912;2023-12-22T08:13:17;-24107.22;;;3.26;100.00
66627;BME280;53498;50.422;14.912;2023-12-22T08:15:43;-24108.47;;;3.30;100.00
66627;BME280;53498;50.422;14.912;2023-12-22T08:18:09;-24110.00;;;3.35;100.00
66627;BME280;53498;50.422;14.912;2023-12-22T08:20:34;-24111.09;;;3.39;100.00
66627;BME280;53498;50.422;14.912;2023-12-22T08:23:00;-24111.88;;;3.41;100.00
66627;BME280;53498;50.422;14.912;2023-12-22T08:25:26;-24111.88;;;3.41;100.00
66627;BME280;53498;50.422;14.912;2023-12-22T08:27:51;-24112.34;;;3.43;100.00
66627;BME280;53498;50.422;14.912;2023-12-22T08:30:17;-24113.72;;;3.47;98.72
66627;BME280;53498;50.422;14.912;2023-12-22T08:32:43;-24113.88;;;3.48;99.58
66627;BME280;53498;50.422;14.912;2023-12-22T08:35:08;-24116.66;;;3.57;99.17
66627;BME280;53498;50.422;14.912;2023-12-22T08:37:34;-24116.34;;;3.56;99.88
66627;BME280;53498;50.422;14.912;2023-12-22T08:39:59;-24116.97;;;3.58;98.52
66627;BME280;53498;50.422;14.912;2023-12-22T08:42:26;-24116.66;;;3.57;97.31
66627;BME280;53498;50.422;14.912;2023-12-22T08:44:52;-24118.69;;;3.64;97.15
66627;BME280;53498;50.422;14.912;2023-12-22T08:47:17;-24119.91;;;3.68;97.71
66627;BME280;53498;50.422;14.912;2023-12-22T08:49:43;-24122.72;;;3.77;99.55
66627;BME280;53498;50.422;14.912;2023-12-22T08:52:09;-24120.84;;;3.71;95.10
66627;BME280;53498;50.422;14.912;2023-12-22T08:54:35;-24123.78;;;3.81;95.82
66627;BME280;53498;50.422;14.912;2023-12-22T08:57:02;-24119.47;;;3.66;97.54
66627;BME280;53498;50.422;14.912;2023-12-22T08:59:27;-24117.59;;;3.60;99.19
66627;BME280;53498;50.422;14.912;2023-12-22T09:01:53;-24116.81;;;3.58;97.44
66627;BME280;53498;50.422;14.912;2023-12-22T09:04:19;-24114.66;;;3.51;100.00
66627;BME280;53498;50.422;14.912;2023-12-22T09:06:51;-24108.00;;;3.29;100.00
66627;BME280;53498;50.422;14.912;2023-12-22T09:09:17;-24095.13;;;2.86;100.00
66627;BME280;53498;50.422;14.912;2023-12-22T09:11:43;-24091.25;;;2.73;100.00
66627;BME280;53498;50.422;14.912;2023-12-22T09:14:08;-24095.75;;;2.88;100.00
66627;BME280;53498;50.422;14.912;2023-12-22T09:16:36;-24096.06;;;2.89;100.00
66627;BME280;53498;50.422;14.912;2023-12-22T09:19:02;-24094.81;;;2.85;100.00
66627;BME280;53498;50.422;14.912;2023-12-22T09:21:27;-24094.19;;;2.83;100.00
66627;BME280;53498;50.422;14.912;2023-12-22T09:23:53;-24089.25;;;2.67;100.00
66627;BME280;53498;50.422;14.912;2023-12-22T09:26:19;-24070.94;;;2.06;100.00
66627;BME280;53498;50.422;14.912;2023-12-22T09:28:45;-24054.78;;;1.53;100.00
66627;BME280;53498;50.422;14.912;2023-12-22T09:31:10;-24053.25;;;1.48;100.00
66627;BME280;53498;50.422;14.912;2023-12-22T09:33:38;-24046.88;;;1.27;100.00
66627;BME280;53498;50.422;14.912;2023-12-22T09:36:05;-24044.53;;;1.20;100.00
66627;BME280;53498;50.422;14.912;2023-12-22T09:38:31;-24049.03;;;1.34;100.00
66627;BME280;53498;50.422;14.912;2023-12-22T09:40:57;-24051.53;;;1.43;100.00
66627;BME280;53498;50.422;14.912;2023-12-22T09:43:23;-24055.41;;;1.55;100.00
66627;BME280;53498;50.422;14.912;2023-12-22T09:45:49;-24055.88;;;1.57;100.00
66627;BME280;53498;50.422;14.912;2023-12-22T09:48:17;-24059.28;;;1.68;100.00
66627;BME280;53498;50.422;14.912;2023-12-22T09:50:44;-24060.22;;;1.71;100.00
66627;BME280;53498;50.422;14.912;2023-12-22T09:53:12;-24058.97;;;1.67;100.00
66627;BME280;53498;50.422;14.912;2023-12-22T09:55:42;-24059.28;;;1.68;100.00
66627;BME280;53498;50.422;14.912;2023-12-22T09:58:08;-24058.50;;;1.66;100.00
66627;BME280;53498;50.422;14.912;2023-12-22T10:00:35;-24061.63;;;1.76;100.00
66627;BME280;53498;50.422;14.912;2023-12-22T10:03:04;-24063.03;;;1.80;100.00
66627;BME280;53498;50.422;14.912;2023-12-22T10:05:31;-24067.22;;;1.94;100.00
66627;BME280;53498;50.422;14.912;2023-12-22T10:07:56;-24071.88;;;2.09;100.00
66627;BME280;53498;50.422;14.912;2023-12-22T10:10:23;-24078.22;;;2.30;100.00
66627;BME280;53498;50.422;14.912;2023-12-22T10:12:51;-24082.72;;;2.45;100.00
66627;BME280;53498;50.422;14.912;2023-12-22T10:15:18;-24086.13;;;2.57;100.00
66627;BME280;53498;50.422;14.912;2023-12-22T10:17:49;-24093.28;;;2.80;100.00
66627;BME280;53498;50.422;14.912;2023-12-22T10:20:15;-24099.16;;;2.99;100.00
66627;BME280;53498;50.422;14.912;2023-12-22T10:22:40;-24105.38;;;3.20;100.00
66627;BME280;53498;50.422;14.912;2023-12-22T10:25:07;-24105.03;;;3.19;100.00
66627;BME280;53498;50.422;14.912;2023-12-22T10:27:35;-24103.19;;;3.13;100.00
66627;BME280;53498;50.422;14.912;2023-12-22T10:30:03;-24100.41;;;3.04;100.00
66627;BME280;53498;50.422;14.912;2023-12-22T10:32:29;-24097.00;;;2.92;100.00
66627;BME280;53498;50.422;14.912;2023-12-22T10:34:56;-24095.44;;;2.87;100.00
66627;BME280;53498;50.422;14.912;2023-12-22T10:37:23;-24098.22;;;2.96;100.00
66627;BME280;53498;50.422;14.912;2023-12-22T10:39:55;-24093.28;;;2.80;100.00
66627;BME280;53498;50.422;14.912;2023-12-22T10:42:20;-24090.16;;;2.70;100.00
66627;BME280;53498;50.422;14.912;2023-12-22T10:44:46;-24090.16;;;2.70;100.00
66627;BME280;53498;50.422;14.912;2023-12-22T10:47:13;-24089.84;;;2.69;100.00
66627;BME280;53498;50.422;14.912;2023-12-22T10:49:39;-24099.63;;;3.01;100.00
66627;BME280;53498;50.422;14.912;2023-12-22T10:52:04;-24102.72;;;3.11;100.00
66627;BME280;53498;50.422;14.912;2023-12-22T10:54:30;-24101.50;;;3.07;100.00
66627;BME280;53498;50.422;14.912;2023-12-22T10:56:59;-24102.72;;;3.11;100.00
66627;BME280;53498;50.422;14.912;2023-12-22T10:59:29;-24106.91;;;3.25;100.00
66627;BME280;53498;50.422;14.912;2023-12-22T11:01:58;-24108.47;;;3.30;100.00
66627;BME280;53498;50.422;14.912;2023-12-22T11:04:29;-24111.41;;;3.40;100.00
66627;BME280;53498;50.422;14.912;2023-12-22T11:07:06;-24113.41;;;3.46;98.68
66627;BME280;53498;50.422;14.912;2023-12-22T11:09:35;-24115.28;;;3.53;99.71
66627;BME280;53498;50.422;14.912;2023-12-22T11:12:02;-24123.50;;;3.80;92.03
66627;BME280;53498;50.422;14.912;2023-12-22T11:14:30;-24127.19;;;3.92;89.08
66627;BME280;53498;50.422;14.912;2023-12-22T11:16:57;-24125.19;;;3.85;92.19
66627;BME280;53498;50.422;14.912;2023-12-22T11:19:26;-24129.06;;;3.98;88.61
66627;BME280;53498;50.422;14.912;2023-12-22T11:21:52;-24130.91;;;4.04;86.95
66627;BME280;53498;50.422;14.912;2023-12-22T11:24:20;-24130.59;;;4.03;85.95
66627;BME280;53498;50.422;14.912;2023-12-22T11:26:47;-24130.31;;;4.02;88.96
66627;BME280;53498;50.422;14.912;2023-12-22T11:29:15;-24131.53;;;4.06;85.31
66627;BME280;53498;50.422;14.912;2023-12-22T11:31:45;-24133.09;;;4.11;86.42
66627;BME280;53498;50.422;14.912;2023-12-22T11:34:12;-24131.38;;;4.06;85.82
66627;BME280;53498;50.422;14.912;2023-12-22T11:36:38;-24129.06;;;3.98;81.05
66627;BME280;53498;50.422;14.912;2023-12-22T11:39:05;-24125.66;;;3.87;77.92
66627;BME280;53498;50.422;14.912;2023-12-22T11:41:34;-24125.19;;;3.85;76.02
66627;BME280;53498;50.422;14.912;2023-12-22T11:44:01;-24125.03;;;3.85;77.59
66627;BME280;53498;50.422;14.912;2023-12-22T11:46:29;-24126.28;;;3.89;79.61
66627;BME280;53498;50.422;14.912;2023-12-22T11:48:56;-24128.28;;;3.96;77.72
66627;BME280;53498;50.422;14.912;2023-12-22T11:51:21;-24131.69;;;4.07;80.73
66627;BME280;53498;50.422;14.912;2023-12-22T11:53:47;-24121.47;;;3.73;84.20
66627;BME280;53498;50.422;14.912;2023-12-22T11:56:13;-24112.34;;;3.43;92.99
66627;BME280;53498;50.422;14.912;2023-12-22T11:58:46;-24102.25;;;3.10;100.00
66627;BME280;53498;50.422;14.912;2023-12-22T12:01:21;-24085.81;;;2.55;100.00
66627;BME280;53498;50.422;14.912;2023-12-22T12:03:49;-24079.78;;;2.36;100.00
66627;BME280;53498;50.422;14.912;2023-12-22T12:06:30;-24065.81;;;1.90;100.00
66627;BME280;53498;50.422;14.912;2023-12-22T12:09:01;-24065.97;;;1.90;100.00
66627;BME280;53498;50.422;14.912;2023-12-22T12:14:29;-24075.28;;;2.21;100.00
66627;BME280;53498;50.422;14.912;2023-12-22T12:17:03;-24078.69;;;2.32;100.00
66627;BME280;53498;50.422;14.912;2023-12-22T12:19:34;-24081.03;;;2.40;100.00
66627;BME280;53498;50.422;14.912;2023-12-22T12:22:00;-24081.47;;;2.41;100.00
66627;BME280;53498;50.422;14.912;2023-12-22T12:24:25;-24087.22;;;2.60;100.00
66627;BME280;53498;50.422;14.912;2023-12-22T12:26:52;-24091.09;;;2.73;100.00
66627;BME280;53498;50.422;14.912;2023-12-22T12:29:17;-24096.22;;;2.90;100.00
66627;BME280;53498;50.422;14.912;2023-12-22T12:31:43;-24104.44;;;3.17;100.00
66627;BME280;53498;50.422;14.912;2023-12-22T12:34:12;-24112.34;;;3.43;100.00
66627;BME280;53498;50.422;14.912;2023-12-22T12:36:39;-24120.38;;;3.69;100.00
66627;BME280;53498;50.422;14.912;2023-12-22T12:39:08;-24124.25;;;3.82;100.00
66627;BME280;53498;50.422;14.912;2023-12-22T12:41:40;-24124.09;;;3.82;100.00
66627;BME280;53498;50.422;14.912;2023-12-22T12:44:07;-24126.13;;;3.88;100.00
66627;BME280;53498;50.422;14.912;2023-12-22T12:46:39;-24128.28;;;3.96;100.00
66627;BME280;53498;50.422;14.912;2023-12-22T12:49:09;-24131.53;;;4.06;99.85